sensor_id;sensor_type;location;lat;lon;timestamp;pressure;altitude;pressure_sealevel;temperature;humidity
47753;BME280;2038;51.728;6.674;2024-03-17T00:00:28;78040.88;;;-141.64;82.01
47753;BME280;2038;51.728;6.674;2024-03-17T00:02:54;78040.88;;;-141.64;81.99
47753;BME280;2038;51.728;6.674;2024-03-17T00:05:21;78036.97;;;-141.64;81.92
47753;BME280;2038;51.728;6.674;2024-03-17T00:07:47;78042.84;;;-141.64;82.12
47753;BME280;2038;51.728;6.674;2024-03-17T00:10:14;78046.75;;;-141.64;81.38
47753;BME280;2038;51.728;6.674;2024-03-17T00:12:41;78052.59;;;-141.64;81.59
47753;BME280;2038;51.728;6.674;2024-03-17T00:15:08;78056.50;;;-141.64;81.81
47753;BME280;2038;51.728;6.674;2024-03-17T00:17:34;78058.47;;;-141.64;81.84
47753;BME280;2038;51.728;6.674;2024-03-17T00:20:04;78052.59;;;-141.64;81.89
47753;BME280;2038;51.728;6.674;2024-03-17T00:22:36;78052.59;;;-141.64;82.50
47753;BME280;2038;51.728;6.674;2024-03-17T00:25:06;78040.88;;;-141.64;82.63
47753;BME280;2038;51.728;6.674;2024-03-17T00:27:35;78036.97;;;-141.64;82.12
47753;BME280;2038;51.728;6.674;2024-03-17T00:30:07;78033.06;;;-141.64;82.50
47753;BME280;2038;51.728;6.674;2024-03-17T00:32:42;78038.94;;;-141.64;81.95
47753;BME280;2038;51.728;6.674;2024-03-17T00:35:09;78040.88;;;-141.64;81.46
47753;BME280;2038;51.728;6.674;2024-03-17T00:37:39;78036.97;;;-141.64;81.46
47753;BME280;2038;51.728;6.674;2024-03-17T00:40:06;78040.88;;;-141.64;81.24
47753;BME280;2038;51.728;6.674;2024-03-17T00:42:33;78038.94;;;-141.64;81.08
47753;BME280;2038;51.728;6.674;2024-03-17T00:44:59;78040.88;;;-141.64;81.41
47753;BME280;2038;51.728;6.674;2024-03-17T00:47:26;78052.59;;;-141.64;81.51
47753;BME280;2038;51.728;6.674;2024-03-17T00:49:52;78056.50;;;-141.64;82.08
47753;BME280;2038;51.728;6.674;2024-03-17T00:52:18;78058.47;;;-141.64;82.42
47753;BME280;2038;51.728;6.674;2024-03-17T00:54:47;78058.47;;;-141.64;82.75
47753;BME280;2038;51.728;6.674;2024-03-17T00:57:14;78048.69;;;-141.64;82.93
47753;BME280;2038;51.728;6.674;2024-03-17T00:59:44;78044.78;;;-141.64;82.15
47753;BME280;2038;51.728;6.674;2024-03-17T01:02:15;78052.59;;;-141.64;82.03
47753;BME280;2038;51.728;6.674;2024-03-17T01:04:45;78052.59;;;-141.64;82.12
47753;BME280;2038;51.728;6.674;2024-03-17T01:07:11;78054.56;;;-141.64;81.70
47753;BME280;2038;51.728;6.674;2024-03-17T01:09:38;78054.56;;;-141.64;81.82
47753;BME280;2038;51.728;6.674;2024-03-17T01:12:05;78052.59;;;-141.64;81.74
47753;BME280;2038;51.728;6.674;2024-03-17T01:14:34;78052.59;;;-141.64;81.55
47753;BME280;2038;51.728;6.674;2024-03-17T01:17:01;78058.47;;;-141.64;81.94
47753;BME280;2038;51.728;6.674;2024-03-17T01:19:30;78068.22;;;-141.64;82.39
47753;BME280;2038;51.728;6.674;2024-03-17T01:22:01;78068.22;;;-141.64;82.11
47753;BME280;2038;51.728;6.674;2024-03-17T01:24:28;78064.31;;;-141.64;82.28
47753;BME280;2038;51.728;6.674;2024-03-17T01:27:01;78064.31;;;-141.64;82.32
47753;BME280;2038;51.728;6.674;2024-03-17T01:29:27;78070.19;;;-141.64;81.98
47753;BME280;2038;51.728;6.674;2024-03-17T01:31:54;78078.00;;;-141.64;81.91
47753;BME280;2038;51.728;6.674;2024-03-17T01:34:21;78079.94;;;-141.64;82.20
47753;BME280;2038;51.728;6.674;2024-03-17T01:36:48;78083.84;;;-141.64;82.22
47753;BME280;2038;51.728;6.674;2024-03-17T01:39:14;78089.72;;;-141.64;82.63
47753;BME280;2038;51.728;6.674;2024-03-17T01:41:42;78081.91;;;-141.64;82.30
47753;BME280;2038;51.728;6.674;2024-03-17T01:44:11;78099.47;;;-141.64;82.40
47753;BME280;2038;51.728;6.674;2024-03-17T01:46:49;78101.44;;;-141.64;82.93
47753;BME280;2038;51.728;6.674;2024-03-17T01:49:16;78095.56;;;-141.64;82.70
47753;BME280;2038;51.728;6.674;2024-03-17T01:51:44;78093.63;;;-141.64;82.39
47753;BME280;2038;51.728;6.674;2024-03-17T01:54:12;78101.44;;;-141.64;82.42
47753;BME280;2038;51.728;6.674;2024-03-17T01:56:40;78109.25;;;-141.64;82.29
47753;BME280;2038;51.728;6.674;2024-03-17T01:59:08;78109.25;;;-141.64;82.38
47753;BME280;2038;51.728;6.674;2024-03-17T02:01:36;78115.09;;;-141.64;83.19
47753;BME280;2038;51.728;6.674;2024-03-17T02:04:04;78119.00;;;-141.64;82.87
47753;BME280;2038;51.728;6.674;2024-03-17T02:06:31;78111.19;;;-141.64;82.81
47753;BME280;2038;51.728;6.674;2024-03-17T02:08:58;78109.25;;;-141.64;82.86
47753;BME280;2038;51.728;6.674;2024-03-17T02:11:28;78111.19;;;-141.64;82.74
47753;BME280;2038;51.728;6.674;2024-03-17T02:13:59;78113.16;;;-141.64;82.96
47753;BME280;2038;51.728;6.674;2024-03-17T02:16:27;78109.25;;;-141.64;82.58
47753;BME280;2038;51.728;6.674;2024-03-17T02:18:57;78107.28;;;-141.64;83.00
47753;BME280;2038;51.728;6.674;2024-03-17T02:21:25;78105.34;;;-141.64;83.23
47753;BME280;2038;51.728;6.674;2024-03-17T02:23:55;78103.38;;;-141.64;83.16
47753;BME280;2038;51.728;6.674;2024-03-17T02:26:23;78101.44;;;-141.64;82.77
47753;BME280;2038;51.728;6.674;2024-03-17T02:28:51;78093.63;;;-141.64;82.78
47753;BME280;2038;51.728;6.674;2024-03-17T02:31:18;78099.47;;;-141.64;82.32
47753;BME280;2038;51.728;6.674;2024-03-17T02:33:45;78103.38;;;-141.64;82.64
47753;BME280;2038;51.728;6.674;2024-03-17T02:36:12;78097.53;;;-141.64;82.49
47753;BME280;2038;51.728;6.674;2024-03-17T02:38:39;78091.66;;;-141.64;82.76
47753;BME280;2038;51.728;6.674;2024-03-17T02:41:24;78089.72;;;-141.64;83.12
47753;BME280;2038;51.728;6.674;2024-03-17T02:43:51;78093.63;;;-141.64;83.19
47753;BME280;2038;51.728;6.674;2024-03-17T02:46:18;78087.75;;;-141.64;83.13
47753;BME280;2038;51.728;6.674;2024-03-17T02:48:47;78072.13;;;-141.64;83.21
47753;BME280;2038;51.728;6.674;2024-03-17T02:51:16;78081.91;;;-141.64;83.06
47753;BME280;2038;51.728;6.674;2024-03-17T02:53:44;78074.09;;;-141.64;83.21
47753;BME280;2038;51.728;6.674;2024-03-17T02:56:13;78078.00;;;-141.64;83.12
47753;BME280;2038;51.728;6.674;2024-03-17T02:58:45;78085.81;;;-141.64;83.33
47753;BME280;2038;51.728;6.674;2024-03-17T03:01:13;78089.72;;;-141.64;83.19
47753;BME280;2038;51.728;6.674;2024-03-17T03:03:40;78087.75;;;-141.64;82.91
47753;BME280;2038;51.728;6.674;2024-03-17T03:06:07;78089.72;;;-141.64;83.12
47753;BME280;2038;51.728;6.674;2024-03-17T03:08:38;78089.72;;;-141.64;83.47
47753;BME280;2038;51.728;6.674;2024-03-17T03:11:07;78087.75;;;-141.64;83.28
47753;BME280;2038;51.728;6.674;2024-03-17T03:13:41;78091.66;;;-141.64;83.35
47753;BME280;2038;51.728;6.674;2024-03-17T03:16:13;78101.44;;;-141.64;83.45
47753;BME280;2038;51.728;6.674;2024-03-17T03:18:40;78097.53;;;-141.64;83.22
47753;BME280;2038;51.728;6.674;2024-03-17T03:21:08;78101.44;;;-141.64;83.29
47753;BME280;2038;51.728;6.674;2024-03-17T03:23:35;78107.28;;;-141.64;83.15
47753;BME280;2038;51.728;6.674;2024-03-17T03:26:03;78109.25;;;-141.64;83.50
47753;BME280;2038;51.728;6.674;2024-03-17T03:28:31;78111.19;;;-141.64;83.55
47753;BME280;2038;51.728;6.674;2024-03-17T03:30:59;78109.25;;;-141.64;83.80
47753;BME280;2038;51.728;6.674;2024-03-17T03:33:26;78109.25;;;-141.64;84.08
47753;BME280;2038;51.728;6.674;2024-03-17T03:35:53;78105.34;;;-141.64;84.20
47753;BME280;2038;51.728;6.674;2024-03-17T03:38:19;78103.38;;;-141.64;83.89
47753;BME280;2038;51.728;6.674;2024-03-17T03:40:46;78097.53;;;-141.64;83.98
47753;BME280;2038;51.728;6.674;2024-03-17T03:43:14;78101.44;;;-141.64;83.79
47753;BME280;2038;51.728;6.674;2024-03-17T03:45:40;78103.38;;;-141.64;83.75
47753;BME280;2038;51.728;6.674;2024-03-17T03:48:07;78093.63;;;-141.64;83.77
47753;BME280;2038;51.728;6.674;2024-03-17T03:50:35;78103.38;;;-141.64;83.50
47753;BME280;2038;51.728;6.674;2024-03-17T03:53:01;78099.47;;;-141.64;83.75
47753;BME280;2038;51.728;6.674;2024-03-17T03:55:28;78097.53;;;-141.64;83.75
47753;BME280;2038;51.728;6.674;2024-03-17T03:57:55;78097.53;;;-141.64;83.82
47753;BME280;2038;51.728;6.674;2024-03-17T04:00:21;78093.63;;;-141.64;84.08
47753;BME280;2038;51.728;6.674;2024-03-17T04:02:50;78093.63;;;-141.64;83.56
47753;BME280;2038;51.728;6.674;2024-03-17T04:05:18;78085.81;;;-141.64;83.84
47753;BME280;2038;51.728;6.674;2024-03-17T04:07:46;78083.84;;;-141.64;83.65
47753;BME280;2038;51.728;6.674;2024-03-17T04:10:15;78070.19;;;-141.64;83.74
47753;BME280;2038;51.728;6.674;2024-03-17T04:12:44;78062.38;;;-141.64;83.79
47753;BME280;2038;51.728;6.674;2024-03-17T04:15:10;78068.22;;;-141.64;83.45
47753;BME280;2038;51.728;6.674;2024-03-17T04:17:37;78062.38;;;-141.64;83.73
47753;BME280;2038;51.728;6.674;2024-03-17T04:20:04;78058.47;;;-141.64;83.70
47753;BME280;2038;51.728;6.674;2024-03-17T04:22:34;78044.78;;;-141.64;83.56
47753;BME280;2038;51.728;6.674;2024-03-17T04:25:00;78031.09;;;-141.64;83.47
47753;BME280;2038;51.728;6.674;2024-03-17T04:27:27;78025.25;;;-141.64;83.21
47753;BME280;2038;51.728;6.674;2024-03-17T04:29:55;78015.47;;;-141.64;83.47
47753;BME280;2038;51.728;6.674;2024-03-17T04:32:23;78009.63;;;-141.64;83.28
47753;BME280;2038;51.728;6.674;2024-03-17T04:34:50;78005.72;;;-141.64;83.38
47753;BME280;2038;51.728;6.674;2024-03-17T04:37:17;78003.75;;;-141.64;82.99
47753;BME280;2038;51.728;6.674;2024-03-17T04:39:45;77997.91;;;-141.64;83.27
47753;BME280;2038;51.728;6.674;2024-03-17T04:42:14;77995.94;;;-141.64;83.08
47753;BME280;2038;51.728;6.674;2024-03-17T04:44:44;77984.22;;;-141.64;82.80
47753;BME280;2038;51.728;6.674;2024-03-17T04:47:11;77982.28;;;-141.64;83.08
47753;BME280;2038;51.728;6.674;2024-03-17T04:49:39;77974.47;;;-141.64;82.91
47753;BME280;2038;51.728;6.674;2024-03-17T04:52:07;77982.28;;;-141.64;82.83
47753;BME280;2038;51.728;6.674;2024-03-17T04:54:34;77978.38;;;-141.64;83.09
47753;BME280;2038;51.728;6.674;2024-03-17T04:57:01;77972.50;;;-141.64;82.94
47753;BME280;2038;51.728;6.674;2024-03-17T04:59:27;77968.59;;;-141.64;82.58
47753;BME280;2038;51.728;6.674;2024-03-17T05:01:54;77974.47;;;-141.64;82.78
47753;BME280;2038;51.728;6.674;2024-03-17T05:04:21;77968.59;;;-141.64;82.70
47753;BME280;2038;51.728;6.674;2024-03-17T05:06:49;77966.66;;;-141.64;82.71
47753;BME280;2038;51.728;6.674;2024-03-17T05:09:19;77962.75;;;-141.64;82.78
47753;BME280;2038;51.728;6.674;2024-03-17T05:11:46;77960.78;;;-141.64;82.82
47753;BME280;2038;51.728;6.674;2024-03-17T05:14:15;77964.69;;;-141.64;82.87
47753;BME280;2038;51.728;6.674;2024-03-17T05:16:42;77964.69;;;-141.64;82.64
47753;BME280;2038;51.728;6.674;2024-03-17T05:19:08;77937.34;;;-141.64;82.35
47753;BME280;2038;51.728;6.674;2024-03-17T05:21:35;77937.34;;;-141.64;82.55
47753;BME280;2038;51.728;6.674;2024-03-17T05:24:02;77945.16;;;-141.64;82.28
47753;BME280;2038;51.728;6.674;2024-03-17T05:26:29;77945.16;;;-141.64;82.59
47753;BME280;2038;51.728;6.674;2024-03-17T05:28:57;77947.13;;;-141.64;82.75
47753;BME280;2038;51.728;6.674;2024-03-17T05:31:23;77945.16;;;-141.64;82.64
47753;BME280;2038;51.728;6.674;2024-03-17T05:33:50;77947.13;;;-141.64;82.61
47753;BME280;2038;51.728;6.674;2024-03-17T05:36:18;77945.16;;;-141.64;82.52
47753;BME280;2038;51.728;6.674;2024-03-17T05:38:46;77939.31;;;-141.64;82.63
47753;BME280;2038;51.728;6.674;2024-03-17T05:41:13;77931.50;;;-141.64;82.66
47753;BME280;2038;51.728;6.674;2024-03-17T05:43:40;77927.59;;;-141.64;83.07
47753;BME280;2038;51.728;6.674;2024-03-17T05:46:12;77931.50;;;-141.64;82.73
47753;BME280;2038;51.728;6.674;2024-03-17T05:48:41;77931.50;;;-141.64;83.25
47753;BME280;2038;51.728;6.674;2024-03-17T05:51:09;77925.63;;;-141.64;83.65
47753;BME280;2038;51.728;6.674;2024-03-17T05:53:38;77913.91;;;-141.64;83.19
47753;BME280;2038;51.728;6.674;2024-03-17T05:56:10;77913.91;;;-141.64;83.25
47753;BME280;2038;51.728;6.674;2024-03-17T05:58:41;77906.09;;;-141.64;83.70
47753;BME280;2038;51.728;6.674;2024-03-17T06:01:08;77892.44;;;-141.64;83.26
47753;BME280;2038;51.728;6.674;2024-03-17T06:03:35;77884.63;;;-141.64;83.60
47753;BME280;2038;51.728;6.674;2024-03-17T06:06:03;77876.81;;;-141.64;83.27
47753;BME280;2038;51.728;6.674;2024-03-17T06:08:30;77869.00;;;-141.64;83.41
47753;BME280;2038;51.728;6.674;2024-03-17T06:10:57;77857.28;;;-141.64;83.45
47753;BME280;2038;51.728;6.674;2024-03-17T06:13:26;77843.59;;;-141.64;82.99
47753;BME280;2038;51.728;6.674;2024-03-17T06:15:54;77827.97;;;-141.64;82.80
47753;BME280;2038;51.728;6.674;2024-03-17T06:18:20;77816.25;;;-141.64;81.84
47753;BME280;2038;51.728;6.674;2024-03-17T06:20:48;77818.22;;;-141.64;81.60
47753;BME280;2038;51.728;6.674;2024-03-17T06:23:15;77808.44;;;-141.64;81.27
47753;BME280;2038;51.728;6.674;2024-03-17T06:25:46;77792.81;;;-141.64;81.01
47753;BME280;2038;51.728;6.674;2024-03-17T06:28:15;77792.81;;;-141.64;81.18
47753;BME280;2038;51.728;6.674;2024-03-17T06:30:54;77798.66;;;-141.64;81.00
47753;BME280;2038;51.728;6.674;2024-03-17T06:33:21;77798.66;;;-141.64;80.71
47753;BME280;2038;51.728;6.674;2024-03-17T06:35:48;77785.00;;;-141.64;80.62
47753;BME280;2038;51.728;6.674;2024-03-17T06:38:15;77781.09;;;-141.64;80.88
47753;BME280;2038;51.728;6.674;2024-03-17T06:40:53;77775.25;;;-141.64;80.66
47753;BME280;2038;51.728;6.674;2024-03-17T06:43:20;77761.56;;;-141.64;81.22
47753;BME280;2038;51.728;6.674;2024-03-17T06:46:00;77755.72;;;-141.64;80.80
47753;BME280;2038;51.728;6.674;2024-03-17T06:48:27;77759.63;;;-141.64;80.73
47753;BME280;2038;51.728;6.674;2024-03-17T06:50:55;77747.88;;;-141.64;80.45
47753;BME280;2038;51.728;6.674;2024-03-17T06:53:22;77745.94;;;-141.64;80.60
47753;BME280;2038;51.728;6.674;2024-03-17T06:55:57;77740.09;;;-141.64;80.73
47753;BME280;2038;51.728;6.674;2024-03-17T06:58:26;77743.97;;;-141.64;80.80
47753;BME280;2038;51.728;6.674;2024-03-17T07:00:54;77736.16;;;-141.64;81.06
47753;BME280;2038;51.728;6.674;2024-03-17T07:03:30;77732.25;;;-141.64;80.69
47753;BME280;2038;51.728;6.674;2024-03-17T07:05:58;77724.47;;;-141.64;80.97
47753;BME280;2038;51.728;6.674;2024-03-17T07:08:29;77716.63;;;-141.64;80.85
47753;BME280;2038;51.728;6.674;2024-03-17T07:11:03;77706.88;;;-141.64;80.68
47753;BME280;2038;51.728;6.674;2024-03-17T07:13:33;77691.25;;;-141.64;80.04
47753;BME280;2038;51.728;6.674;2024-03-17T07:16:02;77691.25;;;-141.64;79.38
47753;BME280;2038;51.728;6.674;2024-03-17T07:18:32;77681.47;;;-141.64;79.10
47753;BME280;2038;51.728;6.674;2024-03-17T07:21:00;77679.53;;;-141.64;79.39
47753;BME280;2038;51.728;6.674;2024-03-17T07:23:31;77695.16;;;-141.64;78.93
47753;BME280;2038;51.728;6.674;2024-03-17T07:26:02;77693.19;;;-141.64;79.16
47753;BME280;2038;51.728;6.674;2024-03-17T07:28:31;77687.34;;;-141.64;79.75
47753;BME280;2038;51.728;6.674;2024-03-17T07:30:58;77679.53;;;-141.64;79.33
47753;BME280;2038;51.728;6.674;2024-03-17T07:33:28;77677.56;;;-141.64;79.28
47753;BME280;2038;51.728;6.674;2024-03-17T07:35:57;77671.72;;;-141.64;79.03
47753;BME280;2038;51.728;6.674;2024-03-17T07:38:27;77665.88;;;-141.64;78.58
47753;BME280;2038;51.728;6.674;2024-03-17T07:41:04;77640.47;;;-141.64;78.42
47753;BME280;2038;51.728;6.674;2024-03-17T07:43:37;77646.31;;;-141.64;78.01
47753;BME280;2038;51.728;6.674;2024-03-17T07:46:10;77638.50;;;-141.64;78.01
47753;BME280;2038;51.728;6.674;2024-03-17T07:48:41;77642.41;;;-141.64;77.77
47753;BME280;2038;51.728;6.674;2024-03-17T07:51:11;77640.47;;;-141.64;77.70
47753;BME280;2038;51.728;6.674;2024-03-17T07:53:40;77646.31;;;-141.64;77.86
47753;BME280;2038;51.728;6.674;2024-03-17T07:56:12;77638.50;;;-141.64;78.17
47753;BME280;2038;51.728;6.674;2024-03-17T07:58:40;77624.84;;;-141.64;77.92
47753;BME280;2038;51.728;6.674;2024-03-17T08:01:15;77607.28;;;-141.64;77.91
47753;BME280;2038;51.728;6.674;2024-03-17T08:03:46;77583.81;;;-141.64;78.39
47753;BME280;2038;51.728;6.674;2024-03-17T08:06:15;77570.16;;;-141.64;77.80
47753;BME280;2038;51.728;6.674;2024-03-17T08:08:41;77550.63;;;-141.64;77.12
47753;BME280;2038;51.728;6.674;2024-03-17T08:11:07;77527.19;;;-141.64;77.09
47753;BME280;2038;51.728;6.674;2024-03-17T08:13:34;77497.91;;;-141.64;76.07
47753;BME280;2038;51.728;6.674;2024-03-17T08:16:07;77482.28;;;-141.64;76.00
47753;BME280;2038;51.728;6.674;2024-03-17T08:18:36;77456.88;;;-141.64;74.96
47753;BME280;2038;51.728;6.674;2024-03-17T08:21:03;77437.34;;;-141.64;74.67
47753;BME280;2038;51.728;6.674;2024-03-17T08:23:30;77411.97;;;-141.64;74.31
47753;BME280;2038;51.728;6.674;2024-03-17T08:25:58;77413.91;;;-141.64;73.90
47753;BME280;2038;51.728;6.674;2024-03-17T08:28:26;77400.25;;;-141.64;73.40
47753;BME280;2038;51.728;6.674;2024-03-17T08:30:55;77380.72;;;-141.64;73.57
47753;BME280;2038;51.728;6.674;2024-03-17T08:33:26;77349.47;;;-141.64;72.88
47753;BME280;2038;51.728;6.674;2024-03-17T08:36:01;77331.91;;;-141.64;72.45
47753;BME280;2038;51.728;6.674;2024-03-17T08:38:36;77324.09;;;-141.64;71.11
47753;BME280;2038;51.728;6.674;2024-03-17T08:41:08;77314.31;;;-141.64;70.56
47753;BME280;2038;51.728;6.674;2024-03-17T08:43:37;77298.69;;;-141.64;70.73
47753;BME280;2038;51.728;6.674;2024-03-17T08:46:08;77288.94;;;-141.64;71.45
47753;BME280;2038;51.728;6.674;2024-03-17T08:48:37;77281.13;;;-141.64;71.25
47753;BME280;2038;51.728;6.674;2024-03-17T08:51:06;77279.16;;;-141.64;70.58
47753;BME280;2038;51.728;6.674;2024-03-17T08:53:33;77271.34;;;-141.64;70.76
47753;BME280;2038;51.728;6.674;2024-03-17T08:56:02;77265.50;;;-141.64;70.15
47753;BME280;2038;51.728;6.674;2024-03-17T08:58:29;77265.50;;;-141.64;70.65
47753;BME280;2038;51.728;6.674;2024-03-17T09:00:55;77253.78;;;-141.64;70.98
47753;BME280;2038;51.728;6.674;2024-03-17T09:03:22;77244.00;;;-141.64;70.86
47753;BME280;2038;51.728;6.674;2024-03-17T09:05:49;77234.25;;;-141.64;70.46
47753;BME280;2038;51.728;6.674;2024-03-17T09:08:18;77226.44;;;-141.64;71.00
47753;BME280;2038;51.728;6.674;2024-03-17T09:10:50;77218.63;;;-141.64;71.11
47753;BME280;2038;51.728;6.674;2024-03-17T09:13:19;77195.19;;;-141.64;70.82
47753;BME280;2038;51.728;6.674;2024-03-17T09:15:51;77185.44;;;-141.64;69.89
47753;BME280;2038;51.728;6.674;2024-03-17T09:18:32;77160.03;;;-141.64;68.69
47753;BME280;2038;51.728;6.674;2024-03-17T09:21:01;77154.19;;;-141.64;69.01
47753;BME280;2038;51.728;6.674;2024-03-17T09:23:29;77144.41;;;-141.64;67.83
47753;BME280;2038;51.728;6.674;2024-03-17T09:28:27;77134.66;;;-141.64;67.48
47753;BME280;2038;51.728;6.674;2024-03-17T09:30:54;77124.88;;;-141.64;67.59
47753;BME280;2038;51.728;6.674;2024-03-17T09:33:22;77119.03;;;-141.64;66.92
47753;BME280;2038;51.728;6.674;2024-03-17T09:38:35;77099.50;;;-141.64;65.71
47753;BME280;2038;51.728;6.674;2024-03-17T09:41:02;77091.69;;;-141.64;64.90
47753;BME280;2038;51.728;6.674;2024-03-17T09:43:31;77101.47;;;-141.64;64.94
47753;BME280;2038;51.728;6.674;2024-03-17T09:46:03;77085.84;;;-141.64;65.02
47753;BME280;2038;51.728;6.674;2024-03-17T09:48:30;77074.13;;;-141.64;65.44
47753;BME280;2038;51.728;6.674;2024-03-17T09:51:02;77060.44;;;-141.64;65.56
47753;BME280;2038;51.728;6.674;2024-03-17T09:53:33;77064.34;;;-141.64;64.99
47753;BME280;2038;51.728;6.674;2024-03-17T09:56:10;77048.72;;;-141.64;64.71
47753;BME280;2038;51.728;6.674;2024-03-17T09:58:42;77042.88;;;-141.64;64.27
47753;BME280;2038;51.728;6.674;2024-03-17T10:01:09;77035.06;;;-141.64;63.61
47753;BME280;2038;51.728;6.674;2024-03-17T10:06:25;77021.41;;;-141.64;63.78
47753;BME280;2038;51.728;6.674;2024-03-17T10:08:57;77015.53;;;-141.64;63.75
47753;BME280;2038;51.728;6.674;2024-03-17T10:11:32;77003.81;;;-141.64;63.69
47753;BME280;2038;51.728;6.674;2024-03-17T10:14:05;77009.69;;;-141.64;63.32
47753;BME280;2038;51.728;6.674;2024-03-17T10:16:37;77001.88;;;-141.64;63.77
47753;BME280;2038;51.728;6.674;2024-03-17T10:21:37;76992.09;;;-141.64;62.58
47753;BME280;2038;51.728;6.674;2024-03-17T10:24:20;76978.44;;;-141.64;63.21
47753;BME280;2038;51.728;6.674;2024-03-17T10:26:50;76988.19;;;-141.64;62.37
47753;BME280;2038;51.728;6.674;2024-03-17T10:29:29;76978.44;;;-141.64;62.57
47753;BME280;2038;51.728;6.674;2024-03-17T10:32:15;76974.53;;;-141.64;62.49
47753;BME280;2038;51.728;6.674;2024-03-17T10:34:44;76980.38;;;-141.64;61.75
47753;BME280;2038;51.728;6.674;2024-03-17T10:37:14;76972.56;;;-141.64;61.85
47753;BME280;2038;51.728;6.674;2024-03-17T10:39:46;76980.38;;;-141.64;62.49
47753;BME280;2038;51.728;6.674;2024-03-17T10:42:25;76984.28;;;-141.64;62.23
47753;BME280;2038;51.728;6.674;2024-03-17T10:44:58;76984.28;;;-141.64;62.09
47753;BME280;2038;51.728;6.674;2024-03-17T10:47:26;76984.28;;;-141.64;62.43
47753;BME280;2038;51.728;6.674;2024-03-17T10:49:54;76976.47;;;-141.64;62.97
47753;BME280;2038;51.728;6.674;2024-03-17T10:52:23;76968.66;;;-141.64;62.57
47753;BME280;2038;51.728;6.674;2024-03-17T10:54:55;76958.91;;;-141.64;61.94
47753;BME280;2038;51.728;6.674;2024-03-17T10:57:31;76953.03;;;-141.64;61.70
47753;BME280;2038;51.728;6.674;2024-03-17T11:00:13;76941.34;;;-141.64;61.42
47753;BME280;2038;51.728;6.674;2024-03-17T11:02:44;76931.56;;;-141.64;61.83
47753;BME280;2038;51.728;6.674;2024-03-17T11:05:15;76929.63;;;-141.64;61.77
47753;BME280;2038;51.728;6.674;2024-03-17T11:07:56;76933.53;;;-141.64;60.99
47753;BME280;2038;51.728;6.674;2024-03-17T11:10:36;76927.66;;;-141.64;61.96
47753;BME280;2038;51.728;6.674;2024-03-17T11:13:03;76933.53;;;-141.64;62.26
47753;BME280;2038;51.728;6.674;2024-03-17T11:20:40;76921.81;;;-141.64;62.88
47753;BME280;2038;51.728;6.674;2024-03-17T11:23:08;76917.91;;;-141.64;62.54
47753;BME280;2038;51.728;6.674;2024-03-17T11:25:40;76923.75;;;-141.64;62.80
47753;BME280;2038;51.728;6.674;2024-03-17T11:28:09;76929.63;;;-141.64;62.43
47753;BME280;2038;51.728;6.674;2024-03-17T11:38:57;76892.50;;;-141.64;61.83
47753;BME280;2038;51.728;6.674;2024-03-17T11:41:36;76888.59;;;-141.64;61.34
47753;BME280;2038;51.728;6.674;2024-03-17T11:46:55;76867.13;;;-141.64;60.87
47753;BME280;2038;51.728;6.674;2024-03-17T11:49:31;76851.50;;;-141.64;61.46
47753;BME280;2038;51.728;6.674;2024-03-17T11:52:10;76869.09;;;-141.64;61.37
47753;BME280;2038;51.728;6.674;2024-03-17T11:54:40;76849.56;;;-141.64;61.59
47753;BME280;2038;51.728;6.674;2024-03-17T11:57:10;76837.84;;;-141.64;61.20
47753;BME280;2038;51.728;6.674;2024-03-17T11:59:38;76826.13;;;-141.64;60.68
47753;BME280;2038;51.728;6.674;2024-03-17T12:02:31;76824.16;;;-141.64;59.93
47753;BME280;2038;51.728;6.674;2024-03-17T12:05:00;76804.66;;;-141.64;60.40
47753;BME280;2038;51.728;6.674;2024-03-17T12:07:28;76787.06;;;-141.64;60.58
47753;BME280;2038;51.728;6.674;2024-03-17T12:09:56;76773.41;;;-141.64;60.63
47753;BME280;2038;51.728;6.674;2024-03-17T12:12:27;76761.69;;;-141.64;60.50
47753;BME280;2038;51.728;6.674;2024-03-17T12:15:18;76732.41;;;-141.64;59.44
47753;BME280;2038;51.728;6.674;2024-03-17T12:17:46;76724.59;;;-141.64;59.18
47753;BME280;2038;51.728;6.674;2024-03-17T12:20:19;76732.41;;;-141.64;59.13
47753;BME280;2038;51.728;6.674;2024-03-17T12:22:47;76716.78;;;-141.64;58.94
47753;BME280;2038;51.728;6.674;2024-03-17T12:25:18;76707.00;;;-141.64;58.43
47753;BME280;2038;51.728;6.674;2024-03-17T12:27:47;76703.13;;;-141.64;59.24
47753;BME280;2038;51.728;6.674;2024-03-17T12:30:15;76693.34;;;-141.64;58.86
47753;BME280;2038;51.728;6.674;2024-03-17T12:32:43;76697.25;;;-141.64;57.72
47753;BME280;2038;51.728;6.674;2024-03-17T12:35:14;76681.63;;;-141.64;58.34
47753;BME280;2038;51.728;6.674;2024-03-17T12:37:45;76691.41;;;-141.64;57.97
47753;BME280;2038;51.728;6.674;2024-03-17T12:40:22;76691.41;;;-141.64;57.76
47753;BME280;2038;51.728;6.674;2024-03-17T12:42:50;76681.63;;;-141.64;57.94
47753;BME280;2038;51.728;6.674;2024-03-17T12:45:23;76664.06;;;-141.64;57.94
47753;BME280;2038;51.728;6.674;2024-03-17T12:47:51;76654.28;;;-141.64;57.90
47753;BME280;2038;51.728;6.674;2024-03-17T12:50:18;76640.63;;;-141.64;58.26
47753;BME280;2038;51.728;6.674;2024-03-17T12:53:02;76626.97;;;-141.64;57.77
47753;BME280;2038;51.728;6.674;2024-03-17T12:55:29;76611.34;;;-141.64;58.27
47753;BME280;2038;51.728;6.674;2024-03-17T12:58:14;76578.16;;;-141.64;57.54
47753;BME280;2038;51.728;6.674;2024-03-17T13:01:01;76564.47;;;-141.64;56.98
47753;BME280;2038;51.728;6.674;2024-03-17T13:03:36;76564.47;;;-141.64;56.65
47753;BME280;2038;51.728;6.674;2024-03-17T13:06:08;76589.88;;;-141.64;56.20
47753;BME280;2038;51.728;6.674;2024-03-17T13:08:39;76576.19;;;-141.64;56.47
47753;BME280;2038;51.728;6.674;2024-03-17T13:11:19;76544.97;;;-141.64;56.82
47753;BME280;2038;51.728;6.674;2024-03-17T13:13:46;76544.97;;;-141.64;57.40
47753;BME280;2038;51.728;6.674;2024-03-17T13:16:16;76533.25;;;-141.64;57.80
47753;BME280;2038;51.728;6.674;2024-03-17T13:18:45;76525.44;;;-141.64;57.80
47753;BME280;2038;51.728;6.674;2024-03-17T13:21:16;76535.19;;;-141.64;56.11
47753;BME280;2038;51.728;6.674;2024-03-17T13:23:43;76515.66;;;-141.64;56.77
47753;BME280;2038;51.728;6.674;2024-03-17T13:26:11;76523.47;;;-141.64;57.55
47753;BME280;2038;51.728;6.674;2024-03-17T13:28:44;76529.34;;;-141.64;57.47